Search for airport 
image banner adimage banner adimage banner ad
image banner ad

CYSJ - Saint John

Located in Saint John, Canada

ICAO - CYSJ, IATA - YSJ

Data provided by Airmate  

General information

Coordinates: N45°18'57" W65°53'24"
Elevation is 357 feet MSL.
Magnetic variation is -17.5333° East
View others Airports in New Brunswick

Operational data

Special qualification required
Current time UTC:
Current local time:
Weather
METAR: CYSJ 221600Z 20019G25KT 12SM OVC008 17/15 A2980 RMK SF8 SLP095 DENSITY ALT 800FT
TAF: TAF AMD CYSJ 221535Z 2215/2224 19018G28KT P6SM SCT006 OVC008 TEMPO 2215/2218 SCT012 OVC030 PROB40 2216/2218 2SM TSRA BR BKN030CB FM221800 20020G30KT P6SM -SHRA OVC010 TEMPO 2218/2224 3SM -SHRA BR BKN005 OVC010 PROB40 2218/2220 2SM TSRA BR BKN030CB RMK NXT FCST BY 221800Z
View NOTAMs / SUP AIP / TFR affecting this airport [VIEW]
Communications frequencies: [VIEW]

Runways:

RWY identifierQFULength (ft)Width (ft)SurfaceLDA (ft)
14121°5100148ASPH5100
32301°5100148ASPH5100
0531°7201148ASPH7005
23211°7201148ASPH7005

Airport contact information

Address: Saint John Canada

Satellite view of CYSJ